Terminal Aerodrome Forecast
Issued by NWS

Home | Current Version | Previous Version | Text Only | Print | Product List | Glossary On
Versions: 1 2 3 4 5 6 7 8 9 10 11 12 13 14 15 16 17 18
607
FTUS46 KMFR 221136
TAFLMT
TAF
KLMT 221136Z 2212/2312 18009KT P6SM VCSH OVC040
     FM221300 19009KT P6SM OVC035
     FM221900 23010KT P6SM SCT030 OVC050
     FM230400 22003KT P6SM SCT020 OVC040
     FM230600 19003KT P6SM OVC020
     FM230900 00000KT 3SM BR OVC015=

USA.gov is the U.S. government's official web portal to all federal, state and local government web resources and services.